createdAt,value
2023-04-03T00:00:06.185Z,1.50
2023-04-03T00:01:08.937Z,1.37
2023-04-03T00:02:12.861Z,1.57
2023-04-03T00:03:15.242Z,1.60
2023-04-03T00:04:17.696Z,1.43
2023-04-03T00:05:19.949Z,1.43
2023-04-03T00:06:24.062Z,1.50
2023-04-03T00:07:26.500Z,1.40
2023-04-03T00:08:32.070Z,1.50
2023-04-03T00:09:34.330Z,1.30
2023-04-03T00:10:38.919Z,1.17
2023-04-03T00:11:41.586Z,1.83
2023-04-03T00:12:44.050Z,1.60
2023-04-03T00:13:46.618Z,1.53
2023-04-03T00:14:49.200Z,1.50
2023-04-03T00:15:52.814Z,1.30
2023-04-03T00:16:55.199Z,1.50
2023-04-03T00:17:58.812Z,1.60
2023-04-03T00:19:01.134Z,1.50
2023-04-03T00:20:04.755Z,1.33
2023-04-03T00:21:07.995Z,1.53
2023-04-03T00:22:10.302Z,1.27
2023-04-03T00:23:12.699Z,1.43
2023-04-03T00:24:15.054Z,1.27
2023-04-03T00:25:17.380Z,1.50
2023-04-03T00:26:19.702Z,1.50
2023-04-03T00:27:22.999Z,1.60
2023-04-03T00:28:25.613Z,1.50
2023-04-03T00:29:27.855Z,1.50
2023-04-03T00:30:30.141Z,1.40
2023-04-03T00:31:32.524Z,1.33
2023-04-03T00:32:35.002Z,1.40
2023-04-03T00:33:37.390Z,1.60
2023-04-03T00:34:39.659Z,1.50
2023-04-03T00:35:42.360Z,1.53
2023-04-03T00:36:46.074Z,1.40
2023-04-03T00:37:48.472Z,1.27
2023-04-03T00:38:50.755Z,1.30
2023-04-03T00:39:53.120Z,1.60
2023-04-03T00:40:55.612Z,1.70
2023-04-03T00:41:57.901Z,1.40
2023-04-03T00:43:00.907Z,1.60
2023-04-03T00:44:22.006Z,1.50
2023-04-03T00:45:33.424Z,1.40
2023-04-03T00:46:35.734Z,1.20
2023-04-03T00:47:40.838Z,1.43
2023-04-03T00:48:48.532Z,1.40
2023-04-03T00:49:53.173Z,1.50
2023-04-03T00:50:56.065Z,1.33
2023-04-03T00:51:59.555Z,1.60
2023-04-03T00:53:03.142Z,1.57
2023-04-03T00:54:08.370Z,1.50
2023-04-03T00:55:11.179Z,1.40
2023-04-03T00:56:18.490Z,1.40
2023-04-03T00:57:22.844Z,1.30
2023-04-03T00:58:33.641Z,1.30
2023-04-03T00:59:42.093Z,1.53
2023-04-03T01:00:50.588Z,1.53
2023-04-03T01:01:58.856Z,1.40
2023-04-03T01:03:01.758Z,1.70
2023-04-03T01:04:05.328Z,1.60
2023-04-03T01:05:08.375Z,1.40
2023-04-03T01:06:11.154Z,1.50
2023-04-03T01:07:19.495Z,1.60
2023-04-03T01:08:21.916Z,1.50
2023-04-03T01:09:25.639Z,1.27
2023-04-03T01:10:28.962Z,1.47
2023-04-03T01:11:31.512Z,1.67
2023-04-03T01:12:39.763Z,1.40
2023-04-03T01:13:43.117Z,1.60
2023-04-03T01:14:48.524Z,1.60
2023-04-03T01:15:51.885Z,1.33
2023-04-03T01:16:55.874Z,1.47
2023-04-03T01:17:59.674Z,1.67
2023-04-03T01:19:03.160Z,1.40
2023-04-03T01:20:23.866Z,1.40
2023-04-03T01:21:38.260Z,1.60
2023-04-03T01:23:05.454Z,1.50
2023-04-03T01:24:31.463Z,1.53
2023-04-03T01:25:35.137Z,1.50
2023-04-03T01:26:37.664Z,1.47
2023-04-03T01:27:40.067Z,1.50
2023-04-03T01:28:42.484Z,1.60
2023-04-03T01:29:45.157Z,1.40
2023-04-03T01:31:09.208Z,1.80
2023-04-03T01:32:12.578Z,1.67
2023-04-03T01:33:15.037Z,1.40
2023-04-03T01:34:18.277Z,1.50
2023-04-03T01:35:20.655Z,1.43
2023-04-03T01:36:29.537Z,1.33
2023-04-03T01:37:34.377Z,1.40
2023-04-03T01:38:36.889Z,1.60
2023-04-03T01:39:39.453Z,1.60
2023-04-03T01:40:41.819Z,1.57
2023-04-03T01:41:44.867Z,1.50
2023-04-03T01:42:52.959Z,1.77
2023-04-03T01:43:55.875Z,1.53
2023-04-03T01:44:58.303Z,1.63
2023-04-03T01:46:01.411Z,1.40
2023-04-03T01:47:06.669Z,1.73
2023-04-03T01:48:09.304Z,1.60
2023-04-03T01:49:11.849Z,1.70
2023-04-03T01:50:14.258Z,1.57
2023-04-03T01:51:17.386Z,1.40
2023-04-03T01:52:20.654Z,1.43
2023-04-03T01:53:22.987Z,1.63
2023-04-03T01:54:25.376Z,1.50
2023-04-03T01:55:28.092Z,1.37
2023-04-03T01:56:30.632Z,1.50
2023-04-03T01:57:33.203Z,1.60
2023-04-03T01:58:35.768Z,1.50
2023-04-03T01:59:38.416Z,1.40
2023-04-03T02:00:41.193Z,1.53
2023-04-03T02:01:44.687Z,1.40
2023-04-03T02:02:47.175Z,1.43
2023-04-03T02:03:49.975Z,1.50
2023-04-03T02:04:53.180Z,1.93
2023-04-03T02:05:55.735Z,1.50
2023-04-03T02:06:59.498Z,1.57
2023-04-03T02:08:02.237Z,1.57
2023-04-03T02:09:06.148Z,1.70
2023-04-03T02:10:08.884Z,1.57
2023-04-03T02:11:11.288Z,1.50
2023-04-03T02:12:13.649Z,1.50
2023-04-03T02:13:16.903Z,1.73
2023-04-03T02:14:20.038Z,1.60
2023-04-03T02:15:22.427Z,1.50
2023-04-03T02:16:26.385Z,1.67
2023-04-03T02:17:28.700Z,1.50
2023-04-03T02:18:31.024Z,1.60
2023-04-03T02:19:33.402Z,1.67
2023-04-03T02:20:35.855Z,1.50
2023-04-03T02:21:38.430Z,1.77
2023-04-03T02:22:40.896Z,1.80
2023-04-03T02:23:43.235Z,1.63
2023-04-03T02:24:45.932Z,1.30
2023-04-03T02:25:50.461Z,1.70
2023-04-03T02:26:52.724Z,1.60
2023-04-03T02:27:55.135Z,1.33
2023-04-03T02:28:57.451Z,1.70
2023-04-03T02:29:59.818Z,1.30
2023-04-03T02:31:02.704Z,1.40
2023-04-03T02:32:06.154Z,1.77
2023-04-03T02:33:09.244Z,1.60
2023-04-03T02:34:11.949Z,1.60
2023-04-03T02:35:14.623Z,1.63
2023-04-03T02:36:18.308Z,1.43
2023-04-03T02:37:27.417Z,1.60
2023-04-03T02:38:30.533Z,1.70
2023-04-03T02:39:33.147Z,1.63
2023-04-03T02:40:36.533Z,1.90
2023-04-03T02:41:39.135Z,1.40
2023-04-03T02:42:47.692Z,1.70
2023-04-03T02:43:49.972Z,1.67
2023-04-03T02:44:52.672Z,1.37
2023-04-03T02:45:55.047Z,1.63
2023-04-03T02:46:57.408Z,1.70
2023-04-03T02:47:59.846Z,1.77
2023-04-03T02:49:02.147Z,1.50
2023-04-03T02:50:05.160Z,1.40
2023-04-03T02:51:08.331Z,1.30
2023-04-03T02:52:10.637Z,1.60
2023-04-03T02:53:13.101Z,1.70
2023-04-03T02:54:15.746Z,1.50
2023-04-03T02:55:23.005Z,1.60
2023-04-03T02:56:29.071Z,1.47
2023-04-03T02:57:31.553Z,1.67
2023-04-03T02:58:33.975Z,1.80
2023-04-03T02:59:37.956Z,1.60
2023-04-03T03:00:40.471Z,1.53
2023-04-03T03:01:42.929Z,1.60
2023-04-03T03:02:45.313Z,1.50
2023-04-03T03:03:47.630Z,1.50
2023-04-03T03:04:51.076Z,1.60
2023-04-03T03:06:08.793Z,1.50
2023-04-03T03:07:13.209Z,1.50
2023-04-03T03:08:15.925Z,1.70
2023-04-03T03:09:20.881Z,1.60
2023-04-03T03:10:24.372Z,1.50
2023-04-03T03:11:27.743Z,1.60
2023-04-03T03:12:32.020Z,1.53
2023-04-03T03:13:35.146Z,1.50
2023-04-03T03:14:42.554Z,1.50
2023-04-03T03:15:45.052Z,1.63
2023-04-03T03:16:50.753Z,1.40
2023-04-03T03:17:53.115Z,1.47
2023-04-03T03:18:57.869Z,1.60
2023-04-03T03:20:01.390Z,1.60
2023-04-03T03:21:05.335Z,2.07
2023-04-03T03:22:08.885Z,1.60
2023-04-03T03:23:11.602Z,1.53
2023-04-03T03:24:13.979Z,1.57
2023-04-03T03:25:16.298Z,1.50
2023-04-03T03:26:18.738Z,1.50
2023-04-03T03:27:21.122Z,1.57
2023-04-03T03:28:25.208Z,1.40
2023-04-03T03:29:27.538Z,1.53
2023-04-03T03:30:30.209Z,1.87
2023-04-03T03:31:32.529Z,1.80
2023-04-03T03:32:35.035Z,1.70
2023-04-03T03:33:37.856Z,1.53
2023-04-03T03:34:40.254Z,1.53
2023-04-03T03:35:43.120Z,1.47
2023-04-03T03:36:46.081Z,1.60
2023-04-03T03:37:48.451Z,1.50
2023-04-03T03:38:50.865Z,1.80
2023-04-03T03:39:53.310Z,1.57
2023-04-03T03:40:55.644Z,1.40
2023-04-03T03:41:59.192Z,1.50
2023-04-03T03:43:01.480Z,1.77
2023-04-03T03:44:05.125Z,1.80
2023-04-03T03:45:09.512Z,1.50
2023-04-03T03:46:11.952Z,1.60
2023-04-03T03:47:14.314Z,1.77
2023-04-03T03:48:16.626Z,1.50
2023-04-03T03:49:18.890Z,1.70
2023-04-03T03:50:21.620Z,1.60
2023-04-03T03:51:24.014Z,1.70
2023-04-03T03:52:26.641Z,1.60
2023-04-03T03:53:29.876Z,1.63
2023-04-03T03:54:36.329Z,1.53
2023-04-03T03:55:39.126Z,1.80
2023-04-03T03:56:42.424Z,1.37
2023-04-03T03:57:45.989Z,1.87
2023-04-03T03:58:48.831Z,1.63
2023-04-03T03:59:52.954Z,1.70
2023-04-03T04:00:55.855Z,1.40
2023-04-03T04:01:58.495Z,1.70
2023-04-03T04:03:02.150Z,1.60
2023-04-03T04:04:06.534Z,1.47
2023-04-03T04:05:09.368Z,1.60
2023-04-03T04:06:11.686Z,1.83
2023-04-03T04:07:14.031Z,1.40
2023-04-03T04:08:16.382Z,1.33
2023-04-03T04:09:20.781Z,1.60
2023-04-03T04:10:23.177Z,1.53
2023-04-03T04:11:26.348Z,1.40
2023-04-03T04:12:30.012Z,1.70
2023-04-03T04:13:32.306Z,1.57
2023-04-03T04:14:34.801Z,1.80
2023-04-03T04:15:37.436Z,1.50
2023-04-03T04:16:41.359Z,1.60
2023-04-03T04:17:50.149Z,1.60
2023-04-03T04:18:52.558Z,1.60
2023-04-03T04:19:55.576Z,1.60
2023-04-03T04:20:57.905Z,1.63
2023-04-03T04:22:00.553Z,1.60
2023-04-03T04:23:02.920Z,1.70
2023-04-03T04:24:07.539Z,1.20
2023-04-03T04:25:10.297Z,1.47
2023-04-03T04:26:14.407Z,1.50
2023-04-03T04:27:17.254Z,1.70
2023-04-03T04:28:19.750Z,1.60
2023-04-03T04:29:25.326Z,1.63
2023-04-03T04:30:28.724Z,1.57
2023-04-03T04:31:32.943Z,1.67
2023-04-03T04:32:35.755Z,1.80
2023-04-03T04:33:38.413Z,1.70
2023-04-03T04:34:42.568Z,1.30
2023-04-03T04:35:45.046Z,1.60
2023-04-03T04:36:48.259Z,1.77
2023-04-03T04:37:51.273Z,1.73
2023-04-03T04:38:54.247Z,1.53
2023-04-03T04:39:58.800Z,1.60
2023-04-03T04:41:01.098Z,1.67
2023-04-03T04:42:04.197Z,1.53
2023-04-03T04:43:09.210Z,1.70
2023-04-03T04:44:12.090Z,1.50
2023-04-03T04:45:16.074Z,1.33
2023-04-03T04:46:20.588Z,1.67
2023-04-03T04:47:30.008Z,1.33
2023-04-03T04:48:32.980Z,1.53
2023-04-03T04:49:35.818Z,1.60
2023-04-03T04:50:38.415Z,1.50
2023-04-03T04:51:51.092Z,1.50
2023-04-03T04:52:56.965Z,1.70
2023-04-03T04:53:59.359Z,1.73
2023-04-03T04:55:02.216Z,1.40
2023-04-03T04:56:04.784Z,2.00
2023-04-03T04:57:08.386Z,1.50
2023-04-03T04:58:11.278Z,1.63
2023-04-03T04:59:14.012Z,1.60
2023-04-03T05:00:16.877Z,1.73
2023-04-03T05:01:19.840Z,1.60
2023-04-03T05:02:35.377Z,1.80
2023-04-03T05:03:38.158Z,1.60
2023-04-03T05:04:41.319Z,1.43
2023-04-03T05:05:49.386Z,1.50
2023-04-03T05:06:51.842Z,1.30
2023-04-03T05:07:58.826Z,1.47
2023-04-03T05:09:02.775Z,1.70
2023-04-03T05:10:07.286Z,1.70
2023-04-03T05:11:10.006Z,1.53
2023-04-03T05:12:13.830Z,1.73
2023-04-03T05:13:22.826Z,1.63
2023-04-03T05:14:25.187Z,1.40
2023-04-03T05:15:28.548Z,1.50
2023-04-03T05:16:31.241Z,1.70
2023-04-03T05:17:33.928Z,1.60
2023-04-03T05:18:37.263Z,1.60
2023-04-03T05:19:44.438Z,1.80
2023-04-03T05:20:50.724Z,1.60
2023-04-03T05:21:55.601Z,1.60
2023-04-03T05:22:58.725Z,2.00
2023-04-03T05:24:04.035Z,1.90
2023-04-03T05:25:09.438Z,1.63
2023-04-03T05:26:11.916Z,1.60
2023-04-03T05:27:14.723Z,1.60
2023-04-03T05:28:23.425Z,1.90
2023-04-03T05:29:26.176Z,1.93
2023-04-03T05:30:28.820Z,1.90
2023-04-03T05:31:31.580Z,1.90
2023-04-03T05:32:34.830Z,1.70
2023-04-03T05:33:49.036Z,1.60
2023-04-03T05:34:54.126Z,1.77
2023-04-03T05:35:56.798Z,1.57
2023-04-03T05:37:05.055Z,1.80
2023-04-03T05:38:09.305Z,1.80
2023-04-03T05:39:11.734Z,1.53
2023-04-03T05:40:18.679Z,1.83
2023-04-03T05:41:23.058Z,1.73
2023-04-03T05:42:26.997Z,1.80
2023-04-03T05:43:29.296Z,1.40
2023-04-03T05:44:32.084Z,1.70
2023-04-03T05:45:34.670Z,1.57
2023-04-03T05:46:37.582Z,1.80
2023-04-03T05:47:42.799Z,1.50
2023-04-03T05:48:45.973Z,2.03
2023-04-03T05:49:52.058Z,1.70
2023-04-03T05:50:56.956Z,1.90
2023-04-03T05:52:02.629Z,1.90
2023-04-03T05:53:07.285Z,1.80
2023-04-03T05:54:20.537Z,1.83
2023-04-03T05:55:26.635Z,1.70
2023-04-03T05:56:29.193Z,1.63
2023-04-03T05:57:31.609Z,1.57
2023-04-03T05:58:34.120Z,1.70
2023-04-03T05:59:37.158Z,1.60
2023-04-03T06:00:40.205Z,1.40
2023-04-03T06:01:43.048Z,1.63
2023-04-03T06:02:45.570Z,1.60
2023-04-03T06:03:54.175Z,1.60
2023-04-03T06:04:56.623Z,1.40
2023-04-03T06:06:00.125Z,2.23
2023-04-03T06:07:02.426Z,1.93
2023-04-03T06:08:04.700Z,2.00
2023-04-03T06:09:07.773Z,1.77
2023-04-03T06:10:13.261Z,1.70
2023-04-03T06:11:18.064Z,2.00
2023-04-03T06:12:21.192Z,1.70
2023-04-03T06:13:23.555Z,1.73
2023-04-03T06:14:28.975Z,2.00
2023-04-03T06:15:31.371Z,2.00
2023-04-03T06:16:34.192Z,1.60
2023-04-03T06:17:38.601Z,1.63
2023-04-03T06:18:41.159Z,1.90
2023-04-03T06:19:43.663Z,1.90
2023-04-03T06:20:47.352Z,1.67
2023-04-03T06:21:50.009Z,1.80
2023-04-03T06:22:52.739Z,1.50
2023-04-03T06:23:55.004Z,1.63
2023-04-03T06:24:58.440Z,1.83
2023-04-03T06:26:01.894Z,1.70
2023-04-03T06:27:04.169Z,1.80
2023-04-03T06:28:07.148Z,1.90
2023-04-03T06:29:09.945Z,1.70
2023-04-03T06:30:12.790Z,1.70
2023-04-03T06:31:15.179Z,1.50
2023-04-03T06:32:17.933Z,1.80
2023-04-03T06:33:20.231Z,1.80
2023-04-03T06:34:22.726Z,1.60
2023-04-03T06:35:25.085Z,1.63
2023-04-03T06:36:27.445Z,1.50
2023-04-03T06:37:30.996Z,1.60
2023-04-03T06:38:36.424Z,1.60
2023-04-03T06:39:38.798Z,1.60
2023-04-03T06:40:41.376Z,1.90
2023-04-03T06:41:44.549Z,1.50
2023-04-03T06:42:47.676Z,1.80
2023-04-03T06:43:50.076Z,1.97
2023-04-03T06:44:52.461Z,1.67
2023-04-03T06:45:56.264Z,1.93
2023-04-03T06:46:58.596Z,1.60
2023-04-03T06:48:01.194Z,1.60
2023-04-03T06:49:03.972Z,1.80
2023-04-03T06:50:07.872Z,1.77
2023-04-03T06:51:18.814Z,2.00
2023-04-03T06:52:21.978Z,1.60
2023-04-03T06:53:24.590Z,1.70
2023-04-03T06:54:26.897Z,1.90
2023-04-03T06:55:29.214Z,2.00
2023-04-03T06:56:31.855Z,1.83
2023-04-03T06:57:34.540Z,1.87
2023-04-03T06:58:37.312Z,2.10
2023-04-03T06:59:39.603Z,2.20
2023-04-03T07:00:42.288Z,1.67
2023-04-03T07:01:44.828Z,2.00
2023-04-03T07:02:47.795Z,2.00
2023-04-03T07:03:50.373Z,2.27
2023-04-03T07:04:52.877Z,1.80
2023-04-03T07:05:55.316Z,1.60
2023-04-03T07:06:57.650Z,2.00
2023-04-03T07:07:59.977Z,1.90
2023-04-03T07:09:02.926Z,1.80
2023-04-03T07:10:06.685Z,1.70
2023-04-03T07:11:09.967Z,1.80
2023-04-03T07:12:12.261Z,2.03
2023-04-03T07:13:14.502Z,1.63
2023-04-03T07:14:16.983Z,1.50
2023-04-03T07:15:19.470Z,1.80
2023-04-03T07:16:21.863Z,1.90
2023-04-03T07:17:24.200Z,1.80
2023-04-03T07:18:26.851Z,1.70
2023-04-03T07:19:30.352Z,2.00
2023-04-03T07:20:32.731Z,1.70
2023-04-03T07:21:36.651Z,1.93
2023-04-03T07:22:38.947Z,1.67
2023-04-03T07:23:41.278Z,1.73
2023-04-03T07:24:43.624Z,1.63
2023-04-03T07:25:48.453Z,2.00
2023-04-03T07:26:52.672Z,1.70
2023-04-03T07:27:58.863Z,1.63
2023-04-03T07:29:01.522Z,1.83
2023-04-03T07:30:04.188Z,1.83
2023-04-03T07:31:09.786Z,1.50
2023-04-03T07:32:12.245Z,1.80
2023-04-03T07:33:15.681Z,1.63
2023-04-03T07:34:17.980Z,1.90
2023-04-03T07:35:21.398Z,1.90
2023-04-03T07:36:24.823Z,1.87
2023-04-03T07:37:27.666Z,1.70
2023-04-03T07:38:31.237Z,1.80
2023-04-03T07:39:34.057Z,1.80
2023-04-03T07:40:37.256Z,1.80
2023-04-03T07:41:39.770Z,2.03
2023-04-03T07:42:42.062Z,2.10
2023-04-03T07:43:44.955Z,2.20
2023-04-03T07:44:47.665Z,2.00
2023-04-03T07:45:55.410Z,1.60
2023-04-03T07:46:58.144Z,1.77
2023-04-03T07:48:00.432Z,1.67
2023-04-03T07:49:02.786Z,1.90
2023-04-03T07:50:05.589Z,1.93
2023-04-03T07:51:07.921Z,2.17
2023-04-03T07:52:11.548Z,1.77
2023-04-03T07:53:14.320Z,1.70
2023-04-03T07:54:17.149Z,1.80
2023-04-03T07:55:19.414Z,1.80
2023-04-03T07:56:21.948Z,1.90
2023-04-03T07:57:26.995Z,1.67
2023-04-03T07:58:30.908Z,1.90
2023-04-03T07:59:33.710Z,1.93
2023-04-03T08:00:35.955Z,1.90
2023-04-03T08:01:38.401Z,1.93
2023-04-03T08:02:40.663Z,2.00
2023-04-03T08:03:43.244Z,2.20
2023-04-03T08:04:45.760Z,1.70
2023-04-03T08:05:49.876Z,1.70
2023-04-03T08:06:52.418Z,1.60
2023-04-03T08:07:54.664Z,1.67
2023-04-03T08:08:57.207Z,1.90
2023-04-03T08:09:59.608Z,1.80
2023-04-03T08:11:03.729Z,1.60
2023-04-03T08:12:06.120Z,1.40
2023-04-03T08:13:09.771Z,2.20
2023-04-03T08:14:17.800Z,1.90
2023-04-03T08:15:20.476Z,1.80
2023-04-03T08:16:25.281Z,2.90
2023-04-03T08:17:29.022Z,2.23
2023-04-03T08:18:31.391Z,2.13
2023-04-03T08:19:33.686Z,1.80
2023-04-03T08:20:35.975Z,1.90
2023-04-03T08:21:38.266Z,2.20
2023-04-03T08:22:40.727Z,2.43
2023-04-03T08:23:42.997Z,2.53
2023-04-03T08:24:56.323Z,1.87
2023-04-03T08:26:07.513Z,2.20
2023-04-03T08:27:10.136Z,1.80
2023-04-03T08:28:13.482Z,2.10
2023-04-03T08:29:15.938Z,1.90
2023-04-03T08:30:18.524Z,1.90
2023-04-03T08:31:21.338Z,2.30
2023-04-03T08:32:24.302Z,1.70
2023-04-03T08:33:26.568Z,1.70
2023-04-03T08:34:28.840Z,1.90
2023-04-03T08:35:31.688Z,1.80
2023-04-03T08:36:34.042Z,2.30
2023-04-03T08:37:39.214Z,2.23
2023-04-03T08:38:41.761Z,1.93
2023-04-03T08:39:45.031Z,1.87
2023-04-03T08:40:47.388Z,1.70
2023-04-03T08:41:49.974Z,1.60
2023-04-03T08:42:58.040Z,1.57
2023-04-03T08:44:38.645Z,1.87
2023-04-03T08:45:51.536Z,1.73
2023-04-03T08:47:21.892Z,1.63
2023-04-03T08:48:40.485Z,1.90
2023-04-03T08:49:54.321Z,1.73
2023-04-03T08:51:03.150Z,1.40
2023-04-03T08:52:12.399Z,1.60
2023-04-03T08:53:22.658Z,1.57
2023-04-03T08:54:36.506Z,1.47
2023-04-03T08:55:47.184Z,1.50
2023-04-03T08:56:49.612Z,1.50
2023-04-03T08:58:00.225Z,1.60
2023-04-03T08:59:13.461Z,1.50
2023-04-03T09:00:24.104Z,1.70
2023-04-03T09:01:35.426Z,1.60
2023-04-03T09:02:48.450Z,1.57
2023-04-03T09:03:51.335Z,1.60
2023-04-03T09:04:56.965Z,1.80
2023-04-03T09:06:06.552Z,1.70
2023-04-03T09:07:22.000Z,1.40
2023-04-03T09:08:27.233Z,1.40
2023-04-03T09:09:36.409Z,1.70
2023-04-03T09:10:41.104Z,1.97
2023-04-03T09:12:22.216Z,3.10
2023-04-03T09:13:42.419Z,2.27
2023-04-03T09:14:57.243Z,1.87
2023-04-03T09:16:21.577Z,1.73
2023-04-03T09:17:39.400Z,1.80
2023-04-03T09:18:49.453Z,1.90
2023-04-03T09:19:59.679Z,1.50
2023-04-03T09:21:14.816Z,1.60
2023-04-03T09:22:24.953Z,1.50
2023-04-03T09:23:43.340Z,1.80
2023-04-03T09:24:51.335Z,1.40
2023-04-03T09:26:01.965Z,1.60
2023-04-03T09:27:11.262Z,1.70
2023-04-03T09:28:13.736Z,1.70
2023-04-03T09:29:20.298Z,2.00
2023-04-03T09:30:25.060Z,1.40
2023-04-03T09:31:30.573Z,1.43
2023-04-03T09:32:35.157Z,1.43
2023-04-03T09:33:38.160Z,1.40
2023-04-03T09:34:43.062Z,1.37
2023-04-03T09:35:48.702Z,1.20
2023-04-03T09:36:54.279Z,1.30
2023-04-03T09:38:18.803Z,1.37
2023-04-03T09:39:31.389Z,1.30
2023-04-03T09:40:40.219Z,1.20
2023-04-03T09:41:55.877Z,1.50
2023-04-03T09:43:01.890Z,1.40
2023-04-03T09:44:04.538Z,1.60
2023-04-03T09:45:07.927Z,1.57
2023-04-03T09:46:33.139Z,1.67
2023-04-03T09:47:37.974Z,1.27
2023-04-03T09:48:40.491Z,1.40
2023-04-03T09:49:42.759Z,1.23
2023-04-03T09:50:51.582Z,1.50
2023-04-03T09:51:54.962Z,1.10
2023-04-03T09:52:57.336Z,1.30
2023-04-03T09:53:59.784Z,1.30
2023-04-03T09:55:09.956Z,1.70
2023-04-03T09:56:19.271Z,1.47
2023-04-03T09:57:21.779Z,1.40
2023-04-03T09:58:47.357Z,1.37
2023-04-03T10:00:01.794Z,1.40
2023-04-03T10:01:04.999Z,1.43
2023-04-03T10:02:39.850Z,1.27
2023-04-03T10:03:47.759Z,1.20
2023-04-03T10:05:02.430Z,1.30
2023-04-03T10:06:25.087Z,1.20
2023-04-03T10:07:40.171Z,1.20
2023-04-03T10:08:43.501Z,1.40
2023-04-03T10:09:56.544Z,1.27
2023-04-03T10:11:13.950Z,1.17
2023-04-03T10:12:21.103Z,1.43
2023-04-03T10:13:23.491Z,1.20
2023-04-03T10:14:26.361Z,1.40
2023-04-03T10:15:29.860Z,1.20
2023-04-03T10:16:49.471Z,1.20
2023-04-03T10:19:38.016Z,1.40
2023-04-03T10:20:51.295Z,1.10
2023-04-03T10:22:05.099Z,1.00
2023-04-03T10:23:13.277Z,1.47
2023-04-03T10:24:23.871Z,1.40
2023-04-03T10:25:53.600Z,1.20
2023-04-03T10:27:03.408Z,1.27
2023-04-03T10:28:28.550Z,1.23
2023-04-03T10:30:00.712Z,1.30
2023-04-03T10:31:15.782Z,1.33
2023-04-03T10:32:41.748Z,1.20
2023-04-03T10:34:08.890Z,1.10
2023-04-03T10:35:32.663Z,1.20
2023-04-03T10:37:02.541Z,1.07
2023-04-03T10:38:21.611Z,1.20
2023-04-03T10:39:54.163Z,1.00
2023-04-03T10:41:14.073Z,1.00
2023-04-03T10:42:36.792Z,0.83
2023-04-03T10:43:51.424Z,0.97
2023-04-03T10:44:59.610Z,1.00
2023-04-03T10:46:09.831Z,0.93
2023-04-03T10:47:12.082Z,1.17
2023-04-03T10:48:46.792Z,1.00
2023-04-03T10:50:03.406Z,1.07
2023-04-03T10:51:21.328Z,1.20
2023-04-03T10:52:26.657Z,1.13
2023-04-03T10:53:40.148Z,1.20
2023-04-03T10:54:50.797Z,1.20
2023-04-03T10:56:13.617Z,1.20
2023-04-03T10:57:16.043Z,1.30
2023-04-03T10:58:37.474Z,1.30
2023-04-03T10:59:47.957Z,1.00
2023-04-03T11:00:54.233Z,1.30
2023-04-03T11:02:30.811Z,1.27
2023-04-03T11:03:42.476Z,1.00
2023-04-03T11:04:49.756Z,1.00
2023-04-03T11:05:56.103Z,1.00
2023-04-03T11:07:12.390Z,0.87
2023-04-03T11:08:33.604Z,1.07
2023-04-03T11:09:42.963Z,1.10
2023-04-03T11:10:52.103Z,1.20
2023-04-03T11:12:01.596Z,1.30
2023-04-03T11:13:13.491Z,1.17
2023-04-03T11:14:23.663Z,1.10
2023-04-03T11:15:27.691Z,1.07
2023-04-03T11:16:40.403Z,1.10
2023-04-03T11:17:54.449Z,0.90
2023-04-03T11:19:13.174Z,1.20
2023-04-03T11:20:21.577Z,1.30
2023-04-03T11:21:44.450Z,1.20
2023-04-03T11:22:52.634Z,1.30
2023-04-03T11:23:59.563Z,1.17
2023-04-03T11:25:11.580Z,1.20
2023-04-03T11:26:17.795Z,1.37
2023-04-03T11:27:25.428Z,1.00
2023-04-03T11:28:27.795Z,1.10
2023-04-03T11:29:35.928Z,1.20
2023-04-03T11:30:47.017Z,1.33
2023-04-03T11:32:05.662Z,1.40
2023-04-03T11:33:23.291Z,1.33
2023-04-03T11:34:42.910Z,1.10
2023-04-03T11:35:48.435Z,1.20
2023-04-03T11:36:55.081Z,1.30
2023-04-03T11:37:59.681Z,1.40
2023-04-03T11:39:26.227Z,1.30
2023-04-03T11:40:33.462Z,1.10
2023-04-03T11:41:36.255Z,1.17
2023-04-03T11:42:41.386Z,1.20
2023-04-03T11:44:01.971Z,1.20
2023-04-03T11:45:22.781Z,1.30
2023-04-03T11:46:55.620Z,1.00
2023-04-03T11:48:34.356Z,1.43
2023-04-03T11:49:58.555Z,1.27
2023-04-03T11:51:22.354Z,1.30
2023-04-03T11:52:43.188Z,1.30
2023-04-03T11:53:46.853Z,1.53
2023-04-03T11:54:49.777Z,1.20
2023-04-03T11:55:52.012Z,1.33
2023-04-03T11:56:54.355Z,1.13
2023-04-03T11:57:59.306Z,1.10
2023-04-03T11:59:15.756Z,1.30
2023-04-03T12:00:52.485Z,1.20
2023-04-03T12:01:57.701Z,1.30
2023-04-03T12:03:00.664Z,1.10
2023-04-03T12:04:11.324Z,1.27
2023-04-03T12:05:29.748Z,1.20
2023-04-03T12:07:01.024Z,1.27
2023-04-03T12:08:29.081Z,1.20
2023-04-03T12:09:36.390Z,1.30
2023-04-03T12:10:40.059Z,1.20
2023-04-03T12:11:42.430Z,1.20
2023-04-03T12:12:58.200Z,1.17
2023-04-03T12:14:00.451Z,1.10
2023-04-03T12:15:27.483Z,1.30
2023-04-03T12:16:39.068Z,1.40
2023-04-03T12:17:41.836Z,0.90
2023-04-03T12:18:55.165Z,0.97
2023-04-03T12:19:57.793Z,1.20
2023-04-03T12:21:00.360Z,1.20
2023-04-03T12:22:06.250Z,1.10
2023-04-03T12:23:24.365Z,1.40
2023-04-03T12:24:36.873Z,1.70
2023-04-03T12:25:52.198Z,1.20
2023-04-03T12:27:10.411Z,1.30
2023-04-03T12:28:13.030Z,1.10
2023-04-03T12:29:26.968Z,1.30
2023-04-03T12:30:31.446Z,1.17
2023-04-03T12:31:46.718Z,1.20
2023-04-03T12:33:20.062Z,1.27
2023-04-03T12:34:58.158Z,1.10
2023-04-03T12:36:24.778Z,1.30
2023-04-03T12:37:50.873Z,1.40
2023-04-03T12:39:06.920Z,1.37
2023-04-03T12:40:22.457Z,1.00
2023-04-03T12:41:41.020Z,1.30
2023-04-03T12:42:59.374Z,1.20
2023-04-03T12:44:14.507Z,1.10
2023-04-03T12:45:21.547Z,1.40
2023-04-03T12:46:36.947Z,1.07
2023-04-03T12:47:43.272Z,1.40
2023-04-03T12:48:45.939Z,1.40
2023-04-03T12:49:51.549Z,2.00
2023-04-03T12:50:57.067Z,2.20
2023-04-03T12:52:00.188Z,2.00
2023-04-03T12:53:08.361Z,1.50
2023-04-03T12:54:34.484Z,1.60
2023-04-03T12:55:38.200Z,1.20
2023-04-03T12:56:41.149Z,1.30
2023-04-03T12:57:43.678Z,1.13
2023-04-03T12:58:46.063Z,1.13
2023-04-03T12:59:49.905Z,1.30
2023-04-03T13:01:03.189Z,1.17
2023-04-03T13:02:20.936Z,1.60
2023-04-03T13:03:28.114Z,1.40
2023-04-03T13:04:33.234Z,1.50
2023-04-03T13:05:37.246Z,1.40
2023-04-03T13:06:42.682Z,1.40
2023-04-03T13:07:49.729Z,1.33
2023-04-03T13:09:01.840Z,1.20
2023-04-03T13:10:10.100Z,1.20
2023-04-03T13:11:13.420Z,1.40
2023-04-03T13:12:17.220Z,1.10
2023-04-03T13:13:19.544Z,1.37
2023-04-03T13:14:24.041Z,1.40
2023-04-03T13:15:40.961Z,1.60
2023-04-03T13:16:43.528Z,1.60
2023-04-03T13:17:46.553Z,1.20
2023-04-03T13:18:53.081Z,1.20
2023-04-03T13:19:55.906Z,1.50
2023-04-03T13:21:04.816Z,1.40
2023-04-03T13:22:14.776Z,1.10
2023-04-03T13:23:19.409Z,1.13
2023-04-03T13:24:21.746Z,1.40
2023-04-03T13:25:26.259Z,1.23
2023-04-03T13:26:32.198Z,1.30
2023-04-03T13:27:34.826Z,1.50
2023-04-03T13:28:38.471Z,1.20
2023-04-03T13:29:41.614Z,1.10
2023-04-03T13:30:57.814Z,1.30
2023-04-03T13:32:02.967Z,1.33
2023-04-03T13:33:20.995Z,1.30
2023-04-03T13:34:28.920Z,1.30
2023-04-03T13:35:43.248Z,1.33
2023-04-03T13:36:52.426Z,1.40
2023-04-03T13:37:57.844Z,1.13
2023-04-03T13:39:30.206Z,1.30
2023-04-03T13:40:45.162Z,1.10
2023-04-03T13:41:58.176Z,1.20
2023-04-03T13:43:07.688Z,1.30
2023-04-03T13:44:28.658Z,1.17
2023-04-03T13:45:36.371Z,1.30
2023-04-03T13:46:41.292Z,1.30
2023-04-03T13:47:45.787Z,1.30
2023-04-03T13:48:53.815Z,1.10
2023-04-03T13:50:13.840Z,1.27
2023-04-03T13:51:16.503Z,1.20
2023-04-03T13:52:32.362Z,1.30
2023-04-03T13:53:42.294Z,1.43
2023-04-03T13:54:48.328Z,1.20
2023-04-03T13:56:07.067Z,1.23
2023-04-03T13:57:16.196Z,1.37
2023-04-03T13:58:25.484Z,1.30
2023-04-03T13:59:34.300Z,1.17
2023-04-03T14:00:48.797Z,1.30
2023-04-03T14:02:11.541Z,1.30
2023-04-03T14:03:18.486Z,1.57
2023-04-03T14:04:32.759Z,1.53
2023-04-03T14:05:35.072Z,1.20
2023-04-03T14:06:37.370Z,1.30
2023-04-03T14:07:39.656Z,1.30
2023-04-03T14:08:43.769Z,1.47
2023-04-03T14:09:46.320Z,2.10
2023-04-03T14:10:51.038Z,2.40
2023-04-03T14:11:56.976Z,2.30
2023-04-03T14:12:59.366Z,2.60
2023-04-03T14:14:06.699Z,2.30
2023-04-03T14:15:30.120Z,1.80
2023-04-03T14:16:38.602Z,1.47
2023-04-03T14:17:41.623Z,1.37
2023-04-03T14:18:46.067Z,2.90
2023-04-03T14:19:50.864Z,2.43
2023-04-03T14:20:54.703Z,2.77
2023-04-03T14:21:58.552Z,2.50
2023-04-03T14:23:00.854Z,1.80
2023-04-03T14:24:03.585Z,1.47
2023-04-03T14:25:06.594Z,1.37
2023-04-03T14:26:14.701Z,1.40
2023-04-03T14:27:25.289Z,1.20
2023-04-03T14:28:28.242Z,1.50
2023-04-03T14:29:30.785Z,1.47
2023-04-03T14:30:35.083Z,1.50
2023-04-03T14:31:37.483Z,1.30
2023-04-03T14:32:40.120Z,1.30
2023-04-03T14:33:43.075Z,1.30
2023-04-03T14:34:46.157Z,1.50
2023-04-03T14:35:49.046Z,1.40
2023-04-03T14:36:51.929Z,1.40
2023-04-03T14:37:55.041Z,1.40
2023-04-03T14:38:58.176Z,1.40
2023-04-03T14:40:02.369Z,1.40
2023-04-03T14:41:15.657Z,1.30
2023-04-03T14:42:35.358Z,1.20
2023-04-03T14:43:37.742Z,1.30
2023-04-03T14:44:40.048Z,1.43
2023-04-03T14:45:43.874Z,1.10
2023-04-03T14:46:56.434Z,1.40
2023-04-03T14:48:00.603Z,1.30